Houlka, MS (38850)

10:09 AM CDT on August 29, 2015 (GMT -0500)
Bruce, Ms | | Change Station
CLOSE
Current Station
Personal Weather Station
Location: Bruce, MS
Elevation: 279 ft
Nearby Weather Stations

Elev 279 ft 33.99 °N, 89.34 °W | Updated 9 seconds ago

Clear
Clear
78.4 °F
Feels Like 81 °F
N
5.8
Wind Variable Wind from SE
Gusts 7.4 mph

Today
High -- | Low -- °F
--% Chance of Precip.
Yesterday
High -- | Low -- °F
Precip. -- in
6:27 AM 7:25 PM
Full, 100% visible
Pressure 30.10 in
Visibility 10.0 miles
Clouds Mostly Cloudy 1200 ft
Heat Index 81 °F
Dew Point 72 °F
Humidity 81%
Rainfall 0.00 in
Snow Depth Not available.
UV 5.0 out of 12
Pollen 8.80 out of 12
Air Quality Not available.
Flu Activity Not available.
METAR KTUP 291453Z 22006KT 10SM BKN012 26/22 A3011 RMK AO2 SLP193 T02560217 53010
Pressure 30.10 in
Visibility 10.0 miles
Clouds Mostly Cloudy 1200 ft
Heat Index 81 °F
Dew Point 72 °F
Humidity 81%
Rainfall 0.00 in
Snow Depth Not available.
UV 5.0 out of 12
Pollen 8.80 out of 12
Air Quality Not available.
Flu Activity Not available.
METAR KTUP 291453Z 22006KT 10SM BKN012 26/22 A3011 RMK AO2 SLP193 T02560217 53010

10-Day Weather Forecast

×

Almanac

Astronomy

Aug. 29, 2015 Rise Set
Actual Time
Civil Twilight
Nautical Twilight
Astronomical Twilight
Moon
Length of Visible Light
Length of Day
Tomorrow will be .
, % of the Moon is Illuminated

Today's Extremes

State Highs State Lows

Community

WunderPhotos

Upload Photos

1,850,684 photos uploaded!

WunderBlogs® & News

Nearby

Air Quality

  Air Quality AQ Index Pollutant
Not available.

Snow Depth

Station Depth Elevation

Earthquake Activity

City Distance Mag. Time & Date
Minimum magnitude displayed is 2.5.

Coastal Water Temperatures

Place Temperature

Stations

Nearby Weather Stations

Station Location Temp. Windchill Dew Point Humidity Wind Precip. Elev Updated Type